Currently 60°F in Pinon Hills, California, USA
60°F
61°F / 42°F
8 mph NW
0.00"
Sunday, February 23, 2020 3:41 PM PST

Pinon Hills, California Weather Summary
Last 36 Hours

Temperature Winds Hourly Humidity Dewpoint
Time Report Norm Report Norm Max Gusts Precip. Rpt. Norm Rpt. Norm Pressure
1Sun 03:41 PM  60.3°F  56°F  8 mph NW  3 mph  17 mph  0.00"  43%  36%  37°F  28°F  30.31"
2Sun 03:05 PM  61.3°F  56°F  10 mph NW  4 mph  15 mph  ----  37%  36%  34°F  28°F  30.31"
Sun 03:00 PM  61.0°F  56°F  7 mph NW  4 mph  19 mph  0.00"  38%  36%  34°F  28°F  30.31"
Sun 02:00 PM  60.5°F  56°F  6 mph NW  4 mph  20 mph  0.00"  36%  36%  32°F  28°F  30.31"
Sun 01:00 PM  60.1°F  56°F  7 mph W  4 mph  18 mph  0.00"  40%  37%  35°F  28°F  30.32"
Sun 12:00 PM  59.4°F  54°F  7 mph NW  3 mph  14 mph  0.00"  38%  38%  33°F  28°F  30.33"
Sun 11:00 AM  57.2°F  53°F  8 mph NW  4 mph  14 mph  0.00"  46%  39%  36°F  28°F  30.35"
Sun 10:00 AM  54.3°F  51°F  9 mph NW  3 mph  15 mph  0.00"  53%  42%  37°F  28°F  30.34"
Sun 09:00 AM  52.7°F  49°F  8 mph NW  3 mph  12 mph  0.00"  56%  45%  37°F  28°F  30.33"
Sun 08:00 AM  49.9°F  47°F  6 mph NW  2 mph  16 mph  0.00"  58%  47%  35°F  27°F  30.32"
Sun 07:00 AM  46.0°F  42°F  6 mph NW  2 mph  14 mph  0.00"  67%  53%  35°F  25°F  30.29"
3Sun 06:08 AM  42.5°F  41°F  2 mph W  3 mph  8 mph  ----  73%  53%  34°F  24°F  30.27"
Sun 06:00 AM  42.7°F  41°F  2 mph NW  3 mph  8 mph  0.00"  73%  53%  34°F  25°F  30.27"
Sun 05:00 AM  44.8°F  41°F  4 mph W  3 mph  15 mph  0.00"  71%  53%  35°F  25°F  30.25"
Sun 04:00 AM  44.6°F  42°F  7 mph W  2 mph  17 mph  0.00"  73%  53%  36°F  25°F  30.22"
Sun 03:00 AM  45.0°F  42°F  7 mph W  2 mph  16 mph  0.00"  73%  54%  36°F  26°F  30.19"
Sun 02:00 AM  45.4°F  42°F  8 mph W  3 mph  15 mph  0.00"  74%  54%  37°F  26°F  30.20"
Sun 01:00 AM  46.0°F  43°F  9 mph W  3 mph  18 mph  0.00"  72%  53%  37°F  26°F  30.20"
Sun 12:00 AM  46.1°F  43°F  11 mph W  3 mph  19 mph  0.00"  71%  54%  37°F  27°F  30.18"
Sat 11:00 PM  46.1°F  44°F  11 mph W  3 mph  16 mph  0.00"  71%  52%  37°F  27°F  30.17"
Sat 10:00 PM  45.7°F  44°F  8 mph W  3 mph  16 mph  0.00"  72%  51%  37°F  27°F  30.16"
Sat 09:00 PM  44.6°F  45°F  5 mph W  3 mph  16 mph  0.00"  77%  50%  38°F  27°F  30.15"
Sat 08:00 PM  44.0°F  46°F  3 mph W  3 mph  13 mph  0.00"  76%  50%  37°F  27°F  30.13"
Sat 07:00 PM  42.9°F  46°F  5 mph W  3 mph  15 mph  0.00"  80%  50%  37°F  28°F  30.12"
Sat 06:00 PM  44.2°F  48°F  3 mph SW  3 mph  11 mph  0.00"  68%  47%  34°F  28°F  30.09"
Sat 05:00 PM  47.7°F  53°F  3 mph W  3 mph  13 mph  0.00"  59%  40%  33°F  28°F  30.07"
Sat 04:00 PM  50.2°F  56°F  4 mph W  3 mph  14 mph  0.00"  54%  35%  33°F  27°F  30.05"
Sat 03:00 PM  49.1°F  57°F  10 mph W  4 mph  18 mph  0.00"  51%  34%  31°F  27°F  30.04"
Sat 02:00 PM  50.5°F  57°F  9 mph NW  4 mph  10 mph  0.00"  57%  34%  35°F  27°F  30.04"
Sat 01:00 PM  49.9°F  56°F  3 mph SW  4 mph  14 mph  0.00"  53%  34%  33°F  27°F  30.06"
Sat 12:00 PM  47.7°F  55°F  2 mph S  3 mph  12 mph  0.00"  63%  35%  35°F  27°F  30.08"
Sat 11:00 AM  48.2°F  54°F  6 mph NW  4 mph  12 mph  0.00"  64%  36%  36°F  27°F  30.09"
Sat 10:00 AM  49.0°F  52°F  4 mph W  3 mph  9 mph  0.00"  53%  39%  32°F  27°F  30.09"
Sat 09:00 AM  46.8°F  50°F  4 mph W  3 mph  7 mph  0.00"  65%  42%  35°F  27°F  30.09"
Sat 08:00 AM  43.2°F  48°F  1 mph N  2 mph  6 mph  0.00"  78%  43%  36°F  26°F  30.09"
Sat 07:00 AM  39.4°F  42°F  calm  2 mph  5 mph  0.00"  79%  49%  33°F  24°F  30.07"
Sat 06:00 AM  43.9°F  41°F  4 mph NE  3 mph  12 mph  0.00"  59%  50%  30°F  23°F  30.06"
Sat 05:00 AM  45.2°F  42°F  7 mph S  3 mph  13 mph  0.00"  59%  50%  31°F  24°F  30.04"
Sat 04:00 AM  42.7°F  42°F  3 mph S  2 mph  8 mph  0.00"  62%  50%  30°F  24°F  30.05"

  1. Current weather data. No green row appears if the current weather data is also the high or low for the current day.
  2. High temperature for the current day.
  3. Low temperature for the current day.

The Pinon Hills, California weather pages are a service of WeatherCurrents.
Copyright ©2020  WeatherCurrents. All rights reserved. - Submit questions and comments - Privacy Policy

This page automatically refreshes every 10 minutes.